Time;durP1;ratioP1;P1;durP2;ratioP2;P2;SDS_P1;SDS_P2;PMS_P1;PMS_P2;Temp;Humidity;BMP_temperature;BMP_pressure;BME280_temperature;BME280_humidity;BME280_pressure;Samples;Min_cycle;Max_cycle;Signal;HPM_P1;HPM_P2
2022/01/17 00:00:36;;;;;;;21.60;16.63;;;3.40;99.90;;;;;;4996938;28;20222;-76
2022/01/17 00:03:02;;;;;;;24.43;17.60;;;3.40;99.90;;;;;;4996719;28;20184;-76
2022/01/17 00:05:28;;;;;;;24.27;17.27;;;3.40;99.90;;;;;;4996928;28;20544;-76
2022/01/17 00:07:53;;;;;;;22.43;16.87;;;3.40;99.90;;;;;;5014063;28;20178;-76
2022/01/17 00:10:19;;;;;;;20.67;16.57;;;3.40;99.90;;;;;;4996389;28;20199;-76
2022/01/17 00:12:47;;;;;;;20.30;16.47;;;3.40;99.90;;;;;;5014131;28;20176;-76
2022/01/17 00:15:26;;;;;;;18.90;15.73;;;3.40;99.90;;;;;;4996524;28;20225;-76
2022/01/17 00:18:19;;;;;;;20.73;16.40;;;3.40;99.90;;;;;;4996469;28;20163;-76
2022/01/17 00:20:38;;;;;;;20.67;15.83;;;3.40;99.90;;;;;;5013804;28;20207;-76
2022/01/17 00:23:03;;;;;;;20.00;15.67;;;3.30;99.90;;;;;;4996674;28;20176;-76
2022/01/17 00:25:29;;;;;;;22.47;16.93;;;3.30;99.90;;;;;;4996340;28;20171;-76
2022/01/17 00:27:55;;;;;;;20.43;15.40;;;3.40;99.90;;;;;;5014140;28;20182;-76
2022/01/17 00:30:20;;;;;;;21.13;15.43;;;3.40;99.90;;;;;;4995878;28;20200;-76
2022/01/17 00:32:46;;;;;;;20.13;15.07;;;3.40;99.90;;;;;;4996271;28;20179;-76
2022/01/17 00:35:11;;;;;;;19.80;14.97;;;3.40;99.90;;;;;;5014035;28;20187;-76
2022/01/17 00:37:38;;;;;;;18.67;14.77;;;3.40;99.90;;;;;;5014084;28;20186;-76
2022/01/17 00:40:05;;;;;;;18.20;14.63;;;3.30;99.90;;;;;;4996562;28;20222;-76
2022/01/17 00:42:30;;;;;;;17.87;13.90;;;3.30;99.90;;;;;;4996041;28;20183;-76
2022/01/17 00:44:56;;;;;;;18.30;14.17;;;3.30;99.90;;;;;;4996105;28;20191;-76
2022/01/17 00:47:22;;;;;;;18.90;14.53;;;3.40;99.90;;;;;;4996145;28;20180;-76
2022/01/17 00:49:47;;;;;;;18.60;13.30;;;3.30;99.90;;;;;;4995943;28;20230;-76
2022/01/17 00:52:13;;;;;;;21.83;15.07;;;3.40;99.90;;;;;;4996064;28;20219;-76
2022/01/17 00:54:38;;;;;;;17.47;14.20;;;3.40;99.90;;;;;;4996015;28;20222;-76
2022/01/17 00:57:04;;;;;;;16.47;13.37;;;3.30;99.90;;;;;;4995936;28;20191;-76
2022/01/17 00:59:31;;;;;;;17.17;13.47;;;3.30;99.90;;;;;;4996067;28;20654;-76
2022/01/17 01:01:57;;;;;;;17.83;14.30;;;3.40;99.90;;;;;;4995968;28;20222;-76
2022/01/17 01:04:23;;;;;;;17.37;13.87;;;3.40;99.90;;;;;;5013467;28;20191;-76
2022/01/17 01:06:49;;;;;;;17.37;14.27;;;3.40;99.90;;;;;;5013550;28;20164;-76
2022/01/17 01:09:14;;;;;;;18.23;13.80;;;3.40;99.90;;;;;;4996730;28;20242;-76
2022/01/17 01:11:40;;;;;;;16.87;13.03;;;3.50;99.90;;;;;;5013650;28;20196;-76
2022/01/17 01:14:06;;;;;;;16.80;12.90;;;3.50;99.90;;;;;;4995838;28;20580;-76
2022/01/17 01:16:34;;;;;;;14.53;11.90;;;3.40;99.90;;;;;;4995827;28;20187;-76
2022/01/17 01:29:29;;;;;;;16.73;13.17;;;3.30;99.90;;;;;;5013940;28;20171;-76
2022/01/17 01:32:00;;;;;;;17.03;12.80;;;3.40;99.90;;;;;;5013490;28;20176;-76
2022/01/17 01:34:35;;;;;;;14.97;12.33;;;3.40;99.90;;;;;;4995663;28;20554;-76
2022/01/17 01:37:03;;;;;;;17.30;13.00;;;3.40;99.90;;;;;;5013421;28;20171;-76
2022/01/17 01:39:29;;;;;;;15.57;13.03;;;3.30;99.90;;;;;;5013050;28;20199;-76
2022/01/17 01:41:55;;;;;;;14.83;12.33;;;3.40;99.90;;;;;;5014043;28;20191;-76
2022/01/17 01:44:23;;;;;;;14.83;12.23;;;3.40;99.90;;;;;;4999248;28;20185;-76
2022/01/17 01:46:51;;;;;;;14.47;12.50;;;3.40;99.90;;;;;;5016759;28;20175;-76
2022/01/17 01:49:17;;;;;;;14.33;12.00;;;3.40;99.90;;;;;;4999381;28;20196;-76
2022/01/17 01:51:44;;;;;;;16.10;12.47;;;3.40;99.90;;;;;;5016627;28;20195;-76
2022/01/17 01:54:10;;;;;;;14.40;12.10;;;3.40;99.90;;;;;;4999914;28;20267;-76
2022/01/17 01:56:37;;;;;;;13.87;11.70;;;3.40;99.90;;;;;;5016775;28;20186;-76
2022/01/17 01:59:04;;;;;;;15.27;11.43;;;3.50;99.90;;;;;;4999747;28;20244;-76
2022/01/17 02:01:30;;;;;;;12.57;11.00;;;3.50;99.90;;;;;;4999139;28;20227;-76
2022/01/17 02:03:56;;;;;;;11.63;10.43;;;3.40;99.90;;;;;;4999236;28;20218;-76
2022/01/17 02:06:22;;;;;;;14.63;10.97;;;3.40;99.90;;;;;;4999119;28;20214;-76
2022/01/17 02:08:47;;;;;;;12.50;10.67;;;3.40;99.90;;;;;;4999730;28;20178;-76
2022/01/17 02:11:13;;;;;;;12.07;10.17;;;3.40;99.90;;;;;;5016373;28;20192;-76
2022/01/17 02:13:39;;;;;;;12.77;11.33;;;3.40;99.90;;;;;;4999898;28;20180;-76
2022/01/17 02:16:16;;;;;;;12.13;10.83;;;3.40;99.90;;;;;;4998739;28;20237;-76
2022/01/17 02:18:44;;;;;;;11.70;10.33;;;3.40;99.90;;;;;;5016369;28;20548;-76
2022/01/17 02:23:51;;;;;;;12.30;10.17;;;3.40;99.90;;;;;;5016386;28;20259;-76
2022/01/17 02:26:18;;;;;;;11.73;10.53;;;3.40;99.90;;;;;;5016088;28;20178;-76
2022/01/17 02:28:46;;;;;;;12.83;11.23;;;3.40;99.90;;;;;;4998720;28;20254;-76
2022/01/17 02:31:11;;;;;;;12.37;10.87;;;3.30;99.90;;;;;;4998268;28;20210;-76
2022/01/17 02:33:37;;;;;;;12.63;10.43;;;3.40;99.90;;;;;;4998444;28;20561;-76
2022/01/17 02:36:03;;;;;;;12.77;10.13;;;3.30;99.90;;;;;;4998345;28;20191;-76
2022/01/17 02:38:29;;;;;;;12.43;10.17;;;3.40;99.90;;;;;;5015654;28;20215;-76
2022/01/17 02:40:55;;;;;;;11.80;9.83;;;3.40;99.90;;;;;;4998280;28;20288;-76
2022/01/17 02:43:22;;;;;;;12.23;10.00;;;3.30;99.90;;;;;;5015690;28;20199;-76
2022/01/17 02:48:18;;;;;;;10.30;9.00;;;3.30;99.90;;;;;;5015667;28;20172;-76
2022/01/17 02:50:44;;;;;;;11.60;9.40;;;3.30;99.90;;;;;;4998772;28;20207;-76
2022/01/17 02:53:12;;;;;;;9.97;8.07;;;3.40;99.90;;;;;;4998249;28;20195;-76
2022/01/17 02:55:39;;;;;;;9.40;8.13;;;3.40;99.90;;;;;;4997580;28;20183;-76
2022/01/17 02:58:05;;;;;;;9.17;8.17;;;3.40;99.90;;;;;;4997813;28;20183;-76
2022/01/17 03:00:32;;;;;;;9.33;8.33;;;3.40;99.90;;;;;;5015291;28;20205;-76
2022/01/17 03:02:57;;;;;;;9.83;8.17;;;3.50;99.90;;;;;;4998671;28;20179;-76
2022/01/17 03:05:23;;;;;;;10.20;8.13;;;3.50;99.90;;;;;;4998825;28;20345;-76
2022/01/17 03:07:49;;;;;;;9.43;8.27;;;3.60;99.90;;;;;;4997657;28;20179;-76
2022/01/17 03:13:09;;;;;;;10.77;8.40;;;3.50;99.90;;;;;;5015763;28;20175;-76
2022/01/17 03:15:35;;;;;;;10.70;9.03;;;3.40;99.90;;;;;;5015331;28;20187;-76
2022/01/17 03:18:02;;;;;;;10.23;9.17;;;3.40;99.90;;;;;;4997432;28;20690;-76
2022/01/17 03:20:28;;;;;;;11.10;9.33;;;3.40;99.90;;;;;;4997431;28;20227;-76
2022/01/17 03:22:54;;;;;;;11.07;9.53;;;3.40;99.90;;;;;;5015033;28;20190;-76
2022/01/17 03:25:20;;;;;;;12.33;9.90;;;3.50;99.90;;;;;;4997417;28;20184;-76
2022/01/17 03:27:46;;;;;;;11.77;10.03;;;3.40;99.90;;;;;;5014834;28;20179;-76
2022/01/17 03:30:12;;;;;;;12.60;10.43;;;3.30;99.90;;;;;;4997790;28;20202;-76
2022/01/17 03:32:37;;;;;;;12.60;10.30;;;3.30;99.90;;;;;;4997690;28;20191;-76
2022/01/17 03:35:04;;;;;;;11.80;10.57;;;3.30;99.90;;;;;;4997256;28;20191;-76
2022/01/17 03:37:29;;;;;;;10.83;9.73;;;3.30;99.90;;;;;;4997901;28;20184;-76
2022/01/17 03:39:55;;;;;;;11.30;10.00;;;3.30;99.90;;;;;;4997013;28;20215;-76
2022/01/17 03:42:22;;;;;;;10.47;9.37;;;3.30;99.90;;;;;;4996872;28;20203;-76
2022/01/17 03:44:48;;;;;;;11.40;10.10;;;3.30;99.90;;;;;;5014847;28;20175;-76
2022/01/17 03:47:13;;;;;;;11.90;9.57;;;3.30;99.90;;;;;;4997057;28;20176;-76
2022/01/17 03:49:39;;;;;;;11.20;9.97;;;3.20;99.90;;;;;;4996892;28;20189;-76
2022/01/17 03:52:06;;;;;;;11.40;9.53;;;3.30;99.90;;;;;;4996955;28;20207;-76
2022/01/17 03:54:32;;;;;;;11.63;10.10;;;3.30;99.90;;;;;;4997363;28;20270;-76
2022/01/17 03:57:00;;;;;;;10.60;9.23;;;3.30;99.90;;;;;;5014434;28;20195;-76
2022/01/17 03:59:26;;;;;;;10.67;9.37;;;3.30;99.90;;;;;;4996717;28;20203;-76
2022/01/17 04:01:52;;;;;;;11.63;9.73;;;3.40;99.90;;;;;;4996692;28;20200;-76
2022/01/17 04:04:18;;;;;;;10.23;8.77;;;3.40;99.90;;;;;;4996645;28;20181;-76
2022/01/17 04:06:43;;;;;;;11.70;9.77;;;3.40;99.90;;;;;;4995765;28;20226;-76
2022/01/17 04:09:10;;;;;;;10.63;9.53;;;3.40;99.90;;;;;;4996911;28;20191;-76
2022/01/17 04:11:36;;;;;;;11.27;9.70;;;3.40;99.90;;;;;;4996641;28;20599;-76
2022/01/17 04:14:03;;;;;;;11.03;9.80;;;3.40;99.90;;;;;;4996825;28;20195;-76
2022/01/17 04:16:29;;;;;;;11.57;9.43;;;3.40;99.90;;;;;;4996439;28;20323;-76
2022/01/17 04:18:55;;;;;;;11.30;9.97;;;3.50;99.90;;;;;;4996423;28;20305;-76
2022/01/17 04:21:21;;;;;;;12.33;10.33;;;3.50;99.90;;;;;;4996327;28;20203;-76
2022/01/17 04:23:46;;;;;;;13.73;10.93;;;3.50;99.90;;;;;;4996636;28;20182;-76
2022/01/17 04:26:12;;;;;;;13.40;10.43;;;3.40;99.90;;;;;;5013976;28;20176;-76
2022/01/17 04:28:38;;;;;;;12.07;10.10;;;3.40;99.90;;;;;;4996313;28;20187;-76
2022/01/17 04:31:03;;;;;;;10.57;9.43;;;3.40;99.90;;;;;;4996249;28;20257;-76
2022/01/17 04:33:29;;;;;;;11.53;9.60;;;3.50;99.90;;;;;;5013790;28;20205;-76
2022/01/17 04:35:55;;;;;;;12.13;10.20;;;3.50;99.90;;;;;;4996453;28;20183;-76
2022/01/17 04:38:20;;;;;;;11.00;9.53;;;3.60;99.90;;;;;;5013706;28;20210;-76
2022/01/17 04:40:49;;;;;;;29.73;24.83;;;3.60;99.90;;;;;;4995940;28;20210;-76
2022/01/17 04:45:07;;;;;;;18.70;14.43;;;3.60;99.90;;;;;;4996439;28;20171;-76
2022/01/17 04:46:08;;;;;;;15.23;12.70;;;3.60;99.90;;;;;;5010584;28;20210;-76
2022/01/17 04:48:34;;;;;;;16.37;14.57;;;3.60;99.90;;;;;;4996072;28;20190;-76
2022/01/17 04:51:00;;;;;;;14.63;12.83;;;3.70;99.90;;;;;;4995987;28;20192;-76
2022/01/17 04:53:27;;;;;;;14.90;13.20;;;3.70;99.90;;;;;;4997173;28;20249;-76
2022/01/17 04:55:53;;;;;;;14.63;12.03;;;3.70;99.90;;;;;;4995985;28;20183;-76
2022/01/17 04:58:18;;;;;;;12.20;10.90;;;3.70;99.90;;;;;;5013505;28;20230;-76
2022/01/17 05:00:46;;;;;;;12.43;10.60;;;3.70;99.90;;;;;;4996815;28;20200;-76
2022/01/17 05:03:17;;;;;;;9.10;8.10;;;3.70;99.90;;;;;;5013499;28;20172;-76
2022/01/17 05:05:43;;;;;;;11.07;9.10;;;3.70;99.90;;;;;;4996021;28;20550;-76
2022/01/17 05:08:08;;;;;;;10.30;8.80;;;3.70;99.90;;;;;;4995921;28;20175;-76
2022/01/17 05:10:34;;;;;;;10.30;8.70;;;3.70;99.90;;;;;;4996670;28;20191;-76
2022/01/17 05:13:00;;;;;;;10.73;8.83;;;3.70;99.90;;;;;;4996397;28;20171;-76
2022/01/17 05:15:35;;;;;;;10.33;9.00;;;3.70;99.90;;;;;;4996265;28;20207;-77
2022/01/17 05:20:35;;;;;;;11.03;8.43;;;3.70;99.90;;;;;;5017496;28;20192;-77
2022/01/17 05:23:02;;;;;;;10.97;8.87;;;3.70;99.90;;;;;;5000487;28;20183;-77
2022/01/17 05:25:27;;;;;;;12.27;8.70;;;3.70;99.90;;;;;;4999635;28;20700;-77
2022/01/17 05:27:53;;;;;;;11.20;9.07;;;3.70;99.90;;;;;;4996727;28;20180;-76
2022/01/17 05:30:22;;;;;;;10.93;8.83;;;3.80;99.90;;;;;;4996580;28;20675;-76
2022/01/17 05:32:48;;;;;;;11.00;8.83;;;3.80;99.90;;;;;;4996230;28;20188;-77
2022/01/17 05:35:14;;;;;;;12.87;9.50;;;3.80;99.90;;;;;;4996247;28;20215;-77
2022/01/17 05:37:41;;;;;;;11.47;9.33;;;3.80;99.90;;;;;;4997449;28;20206;-77
2022/01/17 05:40:09;;;;;;;9.97;8.73;;;3.70;99.90;;;;;;4995982;28;20212;-77
2022/01/17 05:42:35;;;;;;;11.50;9.37;;;3.80;99.90;;;;;;4997409;28;20171;-78
2022/01/17 05:45:01;;;;;;;11.37;8.33;;;3.80;99.90;;;;;;4997511;28;20259;-77
2022/01/17 05:47:26;;;;;;;10.43;8.47;;;3.80;99.90;;;;;;4996883;28;20180;-77
2022/01/17 05:49:52;;;;;;;8.70;7.83;;;3.80;99.90;;;;;;4995926;28;20302;-77
2022/01/17 05:52:17;;;;;;;10.03;7.83;;;3.80;99.90;;;;;;4995928;28;20181;-77
2022/01/17 05:54:44;;;;;;;10.20;8.47;;;3.80;99.90;;;;;;4997062;28;20246;-77
2022/01/17 05:57:11;;;;;;;11.50;8.60;;;3.80;99.90;;;;;;4995954;28;20203;-77
2022/01/17 05:59:36;;;;;;;10.43;8.10;;;3.80;99.90;;;;;;4997436;28;20343;-77
2022/01/17 06:02:02;;;;;;;10.23;7.50;;;3.80;99.90;;;;;;4996680;28;20267;-77
2022/01/17 06:04:28;;;;;;;12.43;9.00;;;3.80;99.90;;;;;;4995680;28;20184;-77
2022/01/17 06:06:54;;;;;;;10.17;8.70;;;3.80;99.90;;;;;;4997129;28;20266;-78
2022/01/17 06:09:19;;;;;;;9.83;8.60;;;3.80;99.90;;;;;;4997076;28;20183;-77
2022/01/17 06:11:45;;;;;;;12.47;8.73;;;3.80;99.90;;;;;;4995454;28;20200;-77
2022/01/17 06:14:16;;;;;;;10.90;8.83;;;3.80;99.90;;;;;;4996952;28;20176;-77
2022/01/17 06:16:42;;;;;;;9.70;8.30;;;3.80;99.90;;;;;;4996777;28;20168;-77
2022/01/17 06:19:07;;;;;;;10.30;9.20;;;3.80;99.90;;;;;;4995271;28;20212;-77
2022/01/17 06:21:33;;;;;;;9.50;8.00;;;3.80;99.90;;;;;;4995301;28;20204;-77
2022/01/17 06:24:02;;;;;;;11.00;8.20;;;3.70;99.90;;;;;;4995881;28;20219;-76
2022/01/17 06:26:28;;;;;;;9.23;8.07;;;3.80;99.90;;;;;;4995369;28;20172;-76
2022/01/17 06:28:53;;;;;;;8.57;7.67;;;3.80;99.90;;;;;;4994604;28;20192;-76
2022/01/17 06:31:19;;;;;;;10.87;7.93;;;3.70;99.90;;;;;;4995106;28;20230;-76
2022/01/17 06:33:44;;;;;;;8.90;7.97;;;3.80;99.90;;;;;;4996608;28;20172;-76
2022/01/17 06:36:10;;;;;;;12.47;8.30;;;3.80;99.90;;;;;;4995174;28;20184;-76
2022/01/17 06:38:36;;;;;;;9.00;8.10;;;3.80;99.90;;;;;;4996054;28;20278;-76
2022/01/17 06:41:01;;;;;;;8.90;7.40;;;3.80;99.90;;;;;;4994973;28;20220;-76
2022/01/17 06:43:27;;;;;;;10.93;8.30;;;3.80;99.90;;;;;;4995044;28;20176;-76
2022/01/17 06:45:52;;;;;;;9.63;8.20;;;3.80;99.90;;;;;;4996005;28;20176;-75
2022/01/17 06:48:18;;;;;;;10.37;8.37;;;3.80;99.90;;;;;;4994933;28;20173;-76
2022/01/17 06:50:43;;;;;;;10.27;8.13;;;3.80;99.90;;;;;;4994777;28;20203;-76
2022/01/17 06:53:09;;;;;;;9.03;7.67;;;3.80;99.90;;;;;;4994764;28;20176;-76
2022/01/17 06:55:34;;;;;;;10.07;7.83;;;3.80;99.90;;;;;;4995562;28;20182;-76
2022/01/17 06:58:36;;;;;;;10.43;8.50;;;3.80;99.90;;;;;;4995721;28;20180;-76
2022/01/17 07:01:04;;;;;;;10.03;7.67;;;3.80;99.90;;;;;;4994752;28;20214;-76
2022/01/17 07:03:30;;;;;;;9.10;8.20;;;3.80;99.90;;;;;;4995850;28;20255;-77
2022/01/17 07:05:56;;;;;;;12.20;8.33;;;3.80;99.90;;;;;;4995882;28;20184;-76
2022/01/17 07:08:21;;;;;;;16.70;11.77;;;3.70;99.90;;;;;;4995733;28;20180;-76
2022/01/17 07:10:47;;;;;;;16.60;10.83;;;3.80;99.90;;;;;;4995644;28;20196;-76
2022/01/17 07:13:12;;;;;;;16.77;15.00;;;3.80;99.90;;;;;;4994399;28;20387;-76
2022/01/17 07:15:38;;;;;;;14.20;12.43;;;3.90;99.90;;;;;;4994596;28;20593;-76
2022/01/17 07:18:06;;;;;;;17.60;15.77;;;3.90;99.90;;;;;;4994333;28;20191;-76
2022/01/17 07:20:32;;;;;;;13.37;9.20;;;3.90;99.90;;;;;;4994323;28;20207;-76
2022/01/17 07:22:57;;;;;;;14.13;11.90;;;3.90;99.90;;;;;;4994532;28;20274;-76
2022/01/17 07:25:23;;;;;;;11.33;9.60;;;3.90;99.90;;;;;;4995436;28;20184;-77
2022/01/17 07:27:48;;;;;;;13.13;10.07;;;3.90;99.90;;;;;;4995288;28;20259;-76
2022/01/17 07:30:14;;;;;;;10.23;8.83;;;3.90;99.90;;;;;;4994584;28;20192;-76
2022/01/17 07:32:39;;;;;;;13.87;9.20;;;3.80;99.90;;;;;;4994045;28;20180;-75
2022/01/17 07:35:06;;;;;;;11.60;9.07;;;3.90;99.90;;;;;;4994402;28;20177;-76
2022/01/17 07:37:33;;;;;;;11.97;8.50;;;4.00;99.90;;;;;;4994427;28;20231;-76
2022/01/17 07:39:59;;;;;;;11.77;8.70;;;4.00;99.90;;;;;;4992419;28;20216;-76
2022/01/17 07:42:24;;;;;;;12.03;9.60;;;4.10;99.90;;;;;;4993669;28;20195;-76
2022/01/17 07:44:54;;;;;;;12.37;8.70;;;4.10;99.90;;;;;;4993349;28;20172;-76
2022/01/17 07:47:37;;;;;;;11.23;8.77;;;4.10;99.90;;;;;;4992568;28;20259;-76
2022/01/17 07:50:04;;;;;;;12.63;9.10;;;4.00;99.90;;;;;;4992716;28;20231;-76
2022/01/17 07:52:30;;;;;;;10.77;7.90;;;4.10;99.90;;;;;;4993046;28;20217;-76
2022/01/17 07:54:55;;;;;;;11.17;8.30;;;4.10;99.90;;;;;;4994300;28;20176;-75
2022/01/17 07:57:22;;;;;;;23.73;15.53;;;4.10;99.90;;;;;;4993834;28;20195;-76
2022/01/17 07:59:47;;;;;;;17.53;12.50;;;4.20;99.90;;;;;;4993464;28;20208;-76
